createdAt,value
2023-03-13T00:02:33.354Z,6.67
2023-03-13T00:06:40.251Z,6.62
2023-03-13T00:10:43.733Z,6.57
2023-03-13T00:14:46.984Z,6.53
2023-03-13T00:18:51.967Z,6.49
2023-03-13T00:22:56.745Z,6.47
2023-03-13T00:27:03.341Z,6.43
2023-03-13T00:31:08.513Z,6.41
2023-03-13T00:35:11.602Z,6.38
2023-03-13T00:39:18.652Z,6.36
2023-03-13T00:43:21.752Z,6.32
2023-03-13T00:47:24.992Z,6.29
2023-03-13T00:51:29.081Z,6.25
2023-03-13T00:55:33.780Z,6.21
2023-03-13T00:59:36.990Z,6.14
2023-03-13T01:03:41.583Z,6.07
2023-03-13T01:07:45.028Z,6.01
2023-03-13T01:11:50.520Z,5.95
2023-03-13T01:15:53.749Z,5.90
2023-03-13T01:19:57.874Z,5.84
2023-03-13T01:24:01.333Z,5.80
2023-03-13T01:28:06.426Z,5.78
2023-03-13T01:32:09.515Z,5.74
2023-03-13T01:36:13.876Z,5.71
2023-03-13T01:40:17.114Z,5.72
2023-03-13T01:44:25.636Z,5.72
2023-03-13T01:48:37.023Z,5.69
2023-03-13T01:52:40.297Z,5.64
2023-03-13T01:56:48.762Z,5.57
2023-03-13T02:00:53.660Z,5.52
2023-03-13T02:05:00.417Z,5.44
2023-03-13T02:09:06.865Z,5.45
2023-03-13T02:13:14.251Z,5.40
2023-03-13T02:17:19.597Z,5.37
2023-03-13T02:21:36.275Z,5.35
2023-03-13T02:25:45.348Z,5.34
2023-03-13T02:29:48.888Z,5.33
2023-03-13T02:33:52.411Z,5.33
2023-03-13T02:37:59.072Z,5.33
2023-03-13T02:42:05.080Z,5.32
2023-03-13T02:46:11.645Z,5.30
2023-03-13T02:50:15.916Z,5.27
2023-03-13T02:54:22.804Z,5.24
2023-03-13T02:58:27.535Z,5.21
2023-03-13T03:02:30.740Z,5.17
2023-03-13T03:06:33.985Z,5.14
2023-03-13T03:10:38.322Z,5.15
2023-03-13T03:14:42.663Z,5.20
2023-03-13T03:18:46.319Z,5.22
2023-03-13T03:22:49.445Z,5.24
2023-03-13T03:26:52.675Z,5.29
2023-03-13T03:30:57.603Z,5.32
2023-03-13T03:35:00.952Z,5.34
2023-03-13T03:39:04.055Z,5.36
2023-03-13T03:43:07.745Z,5.36
2023-03-13T03:47:14.375Z,5.34
2023-03-13T03:51:17.870Z,5.31
2023-03-13T03:55:21.171Z,5.27
2023-03-13T03:59:24.609Z,5.23
2023-03-13T04:03:29.313Z,5.18
2023-03-13T04:07:32.556Z,5.13
2023-03-13T04:11:35.851Z,5.06
2023-03-13T04:15:39.948Z,4.99
2023-03-13T04:19:44.826Z,4.91
2023-03-13T04:23:48.041Z,4.84
2023-03-13T04:27:51.135Z,4.76
2023-03-13T04:31:54.336Z,4.70
2023-03-13T04:35:59.031Z,4.66
2023-03-13T04:40:03.067Z,4.63
2023-03-13T04:44:06.072Z,4.62
2023-03-13T04:48:09.453Z,4.67
2023-03-13T04:52:15.925Z,4.73
2023-03-13T04:56:41.195Z,4.80
2023-03-13T05:00:45.621Z,4.86
2023-03-13T05:04:50.578Z,4.93
2023-03-13T05:08:56.580Z,5.04
2023-03-13T05:12:59.737Z,5.17
2023-03-13T05:17:02.985Z,5.33
2023-03-13T05:21:06.849Z,5.49
2023-03-13T05:25:11.914Z,5.63
2023-03-13T05:29:15.180Z,5.76
2023-03-13T05:33:19.770Z,5.87
2023-03-13T05:37:23.043Z,5.92
2023-03-13T05:41:27.631Z,5.98
2023-03-13T05:45:31.231Z,6.01
2023-03-13T05:49:34.338Z,6.07
2023-03-13T05:53:39.201Z,6.13
2023-03-13T05:57:47.788Z,6.19
2023-03-13T06:01:51.132Z,6.25
2023-03-13T06:05:59.054Z,6.34
2023-03-13T06:10:02.424Z,6.42
2023-03-13T06:14:06.639Z,6.52
2023-03-13T06:18:09.841Z,6.60
2023-03-13T06:22:13.055Z,6.69
2023-03-13T06:26:16.798Z,6.81
2023-03-13T06:30:30.401Z,6.94
2023-03-13T06:34:33.686Z,7.07
2023-03-13T06:38:37.061Z,7.21
2023-03-13T06:42:40.130Z,7.34
2023-03-13T06:46:44.563Z,7.48
2023-03-13T06:50:47.964Z,7.60
2023-03-13T06:54:51.125Z,7.72
2023-03-13T06:58:54.372Z,7.86
2023-03-13T07:02:58.720Z,8.01
2023-03-13T07:07:01.903Z,8.15
2023-03-13T07:11:06.950Z,8.29
2023-03-13T07:15:11.732Z,8.47
2023-03-13T07:19:17.985Z,8.71
2023-03-13T07:23:21.463Z,8.97
2023-03-13T07:27:24.686Z,9.22
2023-03-13T07:31:28.376Z,9.43
2023-03-13T07:35:32.743Z,9.57
2023-03-13T07:39:36.480Z,9.67
2023-03-13T07:43:39.366Z,9.81
2023-03-13T07:47:42.517Z,9.96
2023-03-13T07:51:48.341Z,10.15
2023-03-13T07:55:59.461Z,10.29
2023-03-13T08:00:05.516Z,10.43
2023-03-13T08:04:08.867Z,10.63
2023-03-13T08:08:13.318Z,10.85
2023-03-13T08:12:16.536Z,11.08
2023-03-13T08:16:21.742Z,11.31
2023-03-13T08:20:25.025Z,11.55
2023-03-13T08:24:29.417Z,11.80
2023-03-13T08:28:32.651Z,12.03
2023-03-13T08:32:36.003Z,12.22
2023-03-13T08:36:39.670Z,12.37
2023-03-13T08:40:43.899Z,12.48
2023-03-13T08:44:46.835Z,12.62
2023-03-13T08:48:51.145Z,12.81
2023-03-13T08:52:54.322Z,12.99
2023-03-13T08:56:59.930Z,13.11
2023-03-13T09:01:04.788Z,13.19
2023-03-13T09:05:09.278Z,13.28
2023-03-13T09:09:13.320Z,13.42
2023-03-13T09:13:17.806Z,13.59
2023-03-13T09:17:21.562Z,13.76
2023-03-13T09:21:26.491Z,13.95
2023-03-13T09:25:29.868Z,14.05
2023-03-13T09:29:38.163Z,14.09
2023-03-13T09:37:50.214Z,13.99
2023-03-13T09:41:58.972Z,13.92
2023-03-13T09:46:07.910Z,13.79
2023-03-13T09:50:16.167Z,13.67
2023-03-13T09:54:26.515Z,13.56
2023-03-13T09:58:32.902Z,13.39
2023-03-13T10:02:38.714Z,13.36
2023-03-13T10:06:45.728Z,13.26
2023-03-13T10:10:55.444Z,13.27
2023-03-13T10:15:39.116Z,13.35
2023-03-13T10:19:44.819Z,13.50
2023-03-13T10:23:53.796Z,13.70
2023-03-13T10:27:58.637Z,13.92
2023-03-13T10:32:03.141Z,14.10
2023-03-13T10:36:10.547Z,14.35
2023-03-13T10:40:15.757Z,14.55
2023-03-13T10:44:21.326Z,14.69
2023-03-13T10:48:26.558Z,14.90
2023-03-13T10:52:35.362Z,15.09
2023-03-13T10:56:38.354Z,15.28
2023-03-13T11:00:42.973Z,15.39
2023-03-13T11:04:49.484Z,15.54
2023-03-13T11:09:00.884Z,15.65
2023-03-13T11:13:04.629Z,15.74
2023-03-13T11:17:16.548Z,15.93
2023-03-13T11:21:25.840Z,16.03
2023-03-13T11:25:37.761Z,16.11
2023-03-13T11:29:50.484Z,16.23
2023-03-13T11:33:59.562Z,16.33
2023-03-13T11:38:08.726Z,16.40
2023-03-13T11:42:34.448Z,16.47
2023-03-13T11:46:51.056Z,16.55
2023-03-13T11:51:00.195Z,16.73
2023-03-13T11:55:30.915Z,17.00
2023-03-13T11:59:43.941Z,17.37
2023-03-13T12:03:58.091Z,17.84
2023-03-13T12:08:05.263Z,18.39
2023-03-13T12:12:19.577Z,18.93
2023-03-13T12:16:32.191Z,19.44
2023-03-13T12:20:40.814Z,19.98
2023-03-13T12:24:51.755Z,20.39
2023-03-13T12:29:07.668Z,20.74
2023-03-13T12:33:23.626Z,21.01
2023-03-13T12:37:35.746Z,21.17
2023-03-13T12:41:43.640Z,21.23
2023-03-13T12:46:04.248Z,21.19
2023-03-13T12:50:32.789Z,21.02
2023-03-13T12:54:48.959Z,20.71
2023-03-13T12:58:56.187Z,20.35
2023-03-13T13:03:17.938Z,20.09
2023-03-13T13:07:26.818Z,19.96
2023-03-13T13:11:58.141Z,19.87
2023-03-13T13:16:03.625Z,19.84
2023-03-13T13:20:38.146Z,19.90
2023-03-13T13:24:50.228Z,19.97
2023-03-13T13:28:54.031Z,20.04
2023-03-13T13:33:18.655Z,20.10
2023-03-13T13:37:30.831Z,20.13
2023-03-13T13:42:20.077Z,20.21
2023-03-13T13:46:29.413Z,20.34
2023-03-13T13:50:32.992Z,20.46
2023-03-13T13:54:56.772Z,20.61
2023-03-13T13:59:03.678Z,20.75
2023-03-13T14:03:20.686Z,20.91
2023-03-13T14:07:30.794Z,21.03
2023-03-13T14:11:38.459Z,21.15
2023-03-13T14:15:45.490Z,21.20
2023-03-13T14:19:51.212Z,21.15
2023-03-13T14:23:54.665Z,21.07
2023-03-13T14:27:58.133Z,20.85
2023-03-13T14:32:01.915Z,20.56
2023-03-13T14:36:07.569Z,20.27
2023-03-13T14:40:20.607Z,20.02
2023-03-13T14:44:26.505Z,19.81
2023-03-13T14:48:32.906Z,19.62
2023-03-13T14:52:40.236Z,19.49
2023-03-13T14:56:43.894Z,19.44
2023-03-13T15:00:49.078Z,19.47
2023-03-13T15:04:59.546Z,19.52
2023-03-13T15:09:20.447Z,19.63
2023-03-13T15:13:26.269Z,19.72
2023-03-13T15:17:30.394Z,19.75
2023-03-13T15:21:35.733Z,19.85
2023-03-13T15:25:41.143Z,19.98
2023-03-13T15:29:44.801Z,20.12
2023-03-13T15:33:47.811Z,20.27
2023-03-13T15:37:51.008Z,20.40
2023-03-13T15:41:56.397Z,20.48
2023-03-13T15:46:00.014Z,20.43
2023-03-13T15:50:03.056Z,20.32
2023-03-13T15:54:06.688Z,20.16
2023-03-13T15:58:13.457Z,20.00
2023-03-13T16:02:19.048Z,19.81
2023-03-13T16:06:31.251Z,19.72
2023-03-13T16:10:35.310Z,19.69
2023-03-13T16:14:40.893Z,19.67
2023-03-13T16:18:44.032Z,19.52
2023-03-13T16:22:47.950Z,19.29
2023-03-13T16:26:51.202Z,18.96
2023-03-13T16:30:57.451Z,18.62
2023-03-13T16:35:00.849Z,18.25
2023-03-13T16:39:09.429Z,17.94
2023-03-13T16:43:14.005Z,17.58
2023-03-13T16:47:23.513Z,17.27
2023-03-13T16:51:28.709Z,16.94
2023-03-13T16:55:37.007Z,16.69
2023-03-13T16:59:40.564Z,16.51
2023-03-13T17:03:44.861Z,16.35
2023-03-13T17:07:50.257Z,16.18
2023-03-13T17:11:53.659Z,15.99
2023-03-13T17:15:57.101Z,15.80
2023-03-13T17:20:01.969Z,15.62
2023-03-13T17:24:07.597Z,15.44
2023-03-13T17:28:14.515Z,15.29
2023-03-13T17:32:18.007Z,15.13
2023-03-13T17:36:24.817Z,15.00
2023-03-13T17:40:31.471Z,14.89
2023-03-13T17:44:34.902Z,14.79
2023-03-13T17:48:38.324Z,14.75
2023-03-13T17:52:43.040Z,14.73
2023-03-13T17:56:47.021Z,14.68
2023-03-13T18:00:50.996Z,14.63
2023-03-13T18:04:55.071Z,14.56
2023-03-13T18:09:08.845Z,14.49
2023-03-13T18:13:12.237Z,14.40
2023-03-13T18:17:17.637Z,14.32
2023-03-13T18:21:21.511Z,14.23
2023-03-13T18:25:26.251Z,14.15
2023-03-13T18:29:29.873Z,14.06
2023-03-13T18:33:32.877Z,13.99
2023-03-13T18:37:36.628Z,13.93
2023-03-13T18:41:41.452Z,13.88
2023-03-13T18:45:44.543Z,13.85
2023-03-13T18:49:49.409Z,13.82
2023-03-13T18:53:53.098Z,13.80
2023-03-13T18:57:58.538Z,13.78
2023-03-13T19:02:02.031Z,13.73
2023-03-13T19:06:17.864Z,13.68
2023-03-13T19:10:24.706Z,13.62
2023-03-13T19:14:29.470Z,13.55
2023-03-13T19:18:33.081Z,13.48
2023-03-13T19:22:36.089Z,13.43
2023-03-13T19:26:41.711Z,13.38
2023-03-13T19:31:04.461Z,13.31
2023-03-13T19:35:08.632Z,13.18
2023-03-13T19:39:15.518Z,13.04
2023-03-13T19:43:18.399Z,12.89
2023-03-13T19:47:23.374Z,12.76
2023-03-13T19:51:28.925Z,12.65
2023-03-13T19:55:32.181Z,12.53
2023-03-13T19:59:38.969Z,12.44
2023-03-13T20:03:44.600Z,12.34
2023-03-13T20:07:49.387Z,12.26
2023-03-13T20:11:52.773Z,12.17
2023-03-13T20:15:55.801Z,12.10
2023-03-13T20:20:02.048Z,12.01
2023-03-13T20:24:05.573Z,11.88
2023-03-13T20:28:09.249Z,11.76
2023-03-13T20:32:13.442Z,11.64
2023-03-13T20:36:20.211Z,11.52
2023-03-13T20:40:23.180Z,11.42
2023-03-13T20:44:26.520Z,11.36
2023-03-13T20:48:30.220Z,11.37
2023-03-13T20:52:34.833Z,11.39
2023-03-13T20:56:41.341Z,11.34
2023-03-13T21:00:45.157Z,11.28
2023-03-13T21:04:48.166Z,11.20
2023-03-13T21:08:52.782Z,11.17
2023-03-13T21:12:56.285Z,11.16
2023-03-13T21:16:59.444Z,11.17
2023-03-13T21:21:05.957Z,11.21
2023-03-13T21:25:13.403Z,11.22
2023-03-13T21:29:16.256Z,11.21
2023-03-13T21:33:22.377Z,11.21
2023-03-13T21:41:31.035Z,11.19
2023-03-13T21:45:34.711Z,11.12
2023-03-13T21:49:37.838Z,10.99
2023-03-13T21:53:42.290Z,10.91
2023-03-13T21:57:46.957Z,10.80
2023-03-13T22:01:50.154Z,10.68
2023-03-13T22:05:53.630Z,10.62
2023-03-13T22:09:56.787Z,10.52
2023-03-13T22:14:01.655Z,10.47
2023-03-13T22:18:05.018Z,10.43
2023-03-13T22:22:08.585Z,10.42
2023-03-13T22:26:12.436Z,10.40
2023-03-13T22:30:17.182Z,10.38
2023-03-13T22:34:20.189Z,10.33
2023-03-13T22:38:24.225Z,10.25
2023-03-13T22:42:27.111Z,10.15
2023-03-13T22:46:31.869Z,10.10
2023-03-13T22:50:35.238Z,10.05
2023-03-13T22:54:38.568Z,10.09
2023-03-13T22:58:42.442Z,10.06
2023-03-13T23:02:47.214Z,10.02
2023-03-13T23:06:50.346Z,9.92
2023-03-13T23:10:53.888Z,9.85
2023-03-13T23:14:59.597Z,9.81
2023-03-13T23:19:05.247Z,9.71
2023-03-13T23:23:08.189Z,9.66
2023-03-13T23:27:11.635Z,9.58
2023-03-13T23:31:16.907Z,9.49
2023-03-13T23:35:22.379Z,9.38
2023-03-13T23:39:25.602Z,9.36
2023-03-13T23:43:28.852Z,9.35
2023-03-13T23:47:31.811Z,9.29
2023-03-13T23:51:36.403Z,9.37
2023-03-13T23:55:41.829Z,9.39
2023-03-13T23:59:45.229Z,9.38
